createdAt,value
2022-12-15T00:02:35.781Z,99873.59
2022-12-15T00:05:21.838Z,99870.22
2022-12-15T00:08:07.323Z,99879.47
2022-12-15T00:10:54.082Z,99887.31
2022-12-15T00:13:39.511Z,99891.56
2022-12-15T00:16:25.417Z,99883.91
2022-12-15T00:19:10.555Z,99900.59
2022-12-15T00:21:55.760Z,99897.13
2022-12-15T00:24:41.301Z,99903.78
2022-12-15T00:27:27.943Z,99905.63
2022-12-15T00:30:13.112Z,99906.47
2022-12-15T00:32:58.369Z,99904.72
2022-12-15T00:35:43.893Z,99906.78
2022-12-15T00:38:31.280Z,99910.63
2022-12-15T00:40:59.950Z,99904.66
2022-12-15T00:43:30.031Z,99918.84
2022-12-15T00:46:16.212Z,99906.91
2022-12-15T00:48:44.467Z,99901.88
2022-12-15T00:51:11.952Z,99907.72
2022-12-15T00:53:57.802Z,99898.44
2022-12-15T00:56:43.160Z,99905.13
2022-12-15T00:59:30.311Z,99911.81
2022-12-15T01:02:15.597Z,99915.16
2022-12-15T01:05:01.397Z,99924.53
2022-12-15T01:07:49.670Z,99923.84
2022-12-15T01:10:36.475Z,99929.13
2022-12-15T01:13:22.257Z,99928.41
2022-12-15T01:16:09.245Z,99929.22
2022-12-15T01:18:54.904Z,99928.41
2022-12-15T01:21:24.974Z,99926.78
2022-12-15T01:23:53.193Z,99931.69
2022-12-15T01:26:21.272Z,99927.53
2022-12-15T01:28:49.151Z,99923.16
2022-12-15T01:31:18.349Z,99919.81
2022-12-15T01:33:46.247Z,99918.94
2022-12-15T01:36:14.276Z,99915.53
2022-12-15T01:38:42.702Z,99914.59
2022-12-15T01:41:10.785Z,99908.75
2022-12-15T01:43:40.817Z,99920.59
2022-12-15T01:46:10.670Z,99912.91
2022-12-15T01:48:45.627Z,99912.75
2022-12-15T01:51:18.046Z,99907.59
2022-12-15T01:53:50.863Z,99917.88
2022-12-15T01:56:19.617Z,99912.00
2022-12-15T01:58:50.733Z,99916.13
2022-12-15T02:01:18.988Z,99920.34
2022-12-15T02:03:49.067Z,99917.88
2022-12-15T02:06:18.036Z,99911.88
2022-12-15T02:08:48.546Z,99922.81
2022-12-15T02:11:40.101Z,99923.19
2022-12-15T02:14:09.585Z,99930.28
2022-12-15T02:16:46.666Z,99943.34
2022-12-15T02:20:00.868Z,99927.88
2022-12-15T02:22:36.087Z,99933.72
2022-12-15T02:25:32.947Z,99943.13
2022-12-15T02:28:04.097Z,99947.19
2022-12-15T02:31:11.457Z,99956.34
2022-12-15T02:33:42.859Z,99950.69
2022-12-15T02:36:16.825Z,99955.59
2022-12-15T02:38:45.097Z,99956.06
2022-12-15T02:41:36.223Z,99955.41
2022-12-15T02:44:11.755Z,99955.78
2022-12-15T02:47:05.045Z,99972.63
2022-12-15T02:49:40.266Z,99976.56
2022-12-15T02:52:18.731Z,99982.97
2022-12-15T02:54:59.355Z,99991.91
2022-12-15T02:57:34.170Z,99992.03
2022-12-15T03:00:05.343Z,99990.56
2022-12-15T03:02:37.665Z,99989.22
2022-12-15T03:05:08.928Z,100007.31
2022-12-15T03:07:36.974Z,99997.91
2022-12-15T03:10:07.596Z,100006.28
2022-12-15T03:12:35.558Z,99998.84
2022-12-15T03:15:03.566Z,99996.16
2022-12-15T03:17:31.652Z,99989.97
2022-12-15T03:20:00.885Z,100002.16
2022-12-15T03:22:28.969Z,99995.00
2022-12-15T03:24:56.910Z,100001.22
2022-12-15T03:27:24.923Z,100008.88
2022-12-15T03:29:52.978Z,100007.84
2022-12-15T03:32:20.941Z,100013.91
2022-12-15T03:34:48.888Z,100012.97
2022-12-15T03:37:18.187Z,100019.59
2022-12-15T03:39:46.001Z,100010.19
2022-12-15T03:42:13.864Z,100005.28
2022-12-15T03:44:42.996Z,100010.19
2022-12-15T03:47:10.858Z,100007.75
2022-12-15T03:49:38.662Z,100011.94
2022-12-15T03:52:06.797Z,100017.09
2022-12-15T03:54:36.029Z,100018.00
2022-12-15T03:57:03.900Z,100016.53
2022-12-15T03:59:31.831Z,100023.22
2022-12-15T04:01:59.800Z,100020.81
2022-12-15T04:04:27.739Z,100028.88
2022-12-15T04:06:55.512Z,100038.13
2022-12-15T04:09:23.334Z,100040.63
2022-12-15T04:11:52.447Z,100027.63
2022-12-15T04:14:20.474Z,100036.38
2022-12-15T04:16:48.336Z,100047.00
2022-12-15T04:19:34.363Z,100044.03
2022-12-15T04:22:04.584Z,100043.16
2022-12-15T04:24:50.126Z,100046.97
2022-12-15T04:27:36.721Z,100051.38
2022-12-15T04:30:22.998Z,100044.03
2022-12-15T04:33:08.388Z,100052.69
2022-12-15T04:35:54.187Z,100057.56
2022-12-15T04:38:45.498Z,100054.81
2022-12-15T04:41:37.757Z,100063.22
2022-12-15T04:44:24.906Z,100061.84
2022-12-15T04:47:10.401Z,100069.09
2022-12-15T04:49:55.895Z,100080.78
2022-12-15T04:52:41.364Z,100082.88
2022-12-15T04:55:27.215Z,100087.13
2022-12-15T04:58:12.703Z,100089.00
2022-12-15T05:00:59.572Z,100093.91
2022-12-15T05:03:44.686Z,100105.88
2022-12-15T05:06:29.898Z,100117.06
2022-12-15T05:09:15.240Z,100115.19
2022-12-15T05:12:00.635Z,100120.06
2022-12-15T05:14:46.193Z,100125.13
2022-12-15T05:17:41.453Z,100125.25
2022-12-15T05:20:27.998Z,100114.25
2022-12-15T05:23:13.818Z,100110.88
2022-12-15T05:25:59.106Z,100105.84
2022-12-15T05:28:44.304Z,100109.19
2022-12-15T05:31:31.017Z,100102.91
2022-12-15T05:34:05.202Z,100100.97
2022-12-15T05:36:33.780Z,100107.13
2022-12-15T05:39:01.551Z,100121.47
2022-12-15T05:41:29.435Z,100136.09
2022-12-15T05:43:57.272Z,100143.69
2022-12-15T05:46:25.335Z,100146.03
2022-12-15T05:48:53.347Z,100147.56
2022-12-15T05:51:22.610Z,100141.78
2022-12-15T05:53:50.394Z,100157.72
2022-12-15T05:56:18.321Z,100147.94
2022-12-15T05:58:46.105Z,100160.88
2022-12-15T06:01:15.264Z,100150.84
2022-12-15T06:03:43.845Z,100166.47
2022-12-15T06:06:13.156Z,100168.03
2022-12-15T06:08:43.519Z,100176.03
2022-12-15T06:11:12.626Z,100173.31
2022-12-15T06:13:40.731Z,100182.63
2022-12-15T06:16:11.964Z,100181.31
2022-12-15T06:18:41.816Z,100173.53
2022-12-15T06:21:12.100Z,100183.91
2022-12-15T06:23:40.173Z,100203.84
2022-12-15T06:26:12.017Z,100198.88
2022-12-15T06:28:40.390Z,100197.78
2022-12-15T06:31:10.249Z,100187.38
2022-12-15T06:33:38.367Z,100196.22
2022-12-15T06:36:08.614Z,100182.97
2022-12-15T06:38:36.774Z,100197.44
2022-12-15T06:41:06.168Z,100193.25
2022-12-15T06:43:35.562Z,100193.91
2022-12-15T06:46:03.870Z,100205.63
2022-12-15T06:48:32.145Z,100192.78
2022-12-15T06:51:03.826Z,100199.44
2022-12-15T06:53:32.216Z,100204.69
2022-12-15T06:56:02.076Z,100206.59
2022-12-15T06:58:30.506Z,100202.56
2022-12-15T07:00:59.997Z,100209.38
2022-12-15T07:03:28.090Z,100205.94
2022-12-15T07:06:03.417Z,100215.78
2022-12-15T07:08:36.586Z,100219.25
2022-12-15T07:11:08.926Z,100223.50
2022-12-15T07:13:36.726Z,100229.38
2022-12-15T07:16:08.335Z,100241.75
2022-12-15T07:18:36.354Z,100249.84
2022-12-15T07:21:05.855Z,100260.81
2022-12-15T07:23:53.241Z,100278.72
2022-12-15T07:26:22.219Z,100281.16
2022-12-15T07:28:50.171Z,100272.22
2022-12-15T07:31:22.128Z,100271.22
2022-12-15T07:33:52.392Z,100282.81
2022-12-15T07:36:20.689Z,100286.06
2022-12-15T07:38:50.545Z,100293.16
2022-12-15T07:41:19.974Z,100288.25
2022-12-15T07:43:48.849Z,100279.66
2022-12-15T07:46:19.660Z,100288.56
2022-12-15T07:48:50.218Z,100287.91
2022-12-15T07:51:26.065Z,100286.03
2022-12-15T07:53:53.972Z,100281.50
2022-12-15T07:56:21.861Z,100297.00
2022-12-15T07:58:50.230Z,100310.38
2022-12-15T08:01:19.516Z,100313.28
2022-12-15T08:03:48.200Z,100315.25
2022-12-15T08:06:16.715Z,100317.00
2022-12-15T08:08:50.015Z,100317.69
2022-12-15T08:11:19.637Z,100314.63
2022-12-15T08:14:04.732Z,100317.41
2022-12-15T08:16:36.698Z,100329.22
2022-12-15T08:19:06.173Z,100332.97
2022-12-15T08:21:34.017Z,100332.47
2022-12-15T08:24:01.939Z,100326.97
2022-12-15T08:26:31.341Z,100338.50
2022-12-15T08:29:32.027Z,100329.50
2022-12-15T08:31:53.205Z,100335.06
2022-12-15T08:34:21.460Z,100341.34
2022-12-15T08:36:49.256Z,100338.47
2022-12-15T08:39:20.351Z,100345.34
2022-12-15T08:41:48.252Z,100342.59
2022-12-15T08:44:16.959Z,100341.13
2022-12-15T08:46:45.084Z,100345.81
2022-12-15T08:49:21.193Z,100347.50
2022-12-15T08:51:50.409Z,100347.66
2022-12-15T08:54:19.488Z,100344.56
2022-12-15T08:56:47.433Z,100344.09
2022-12-15T08:59:15.275Z,100358.16
2022-12-15T09:01:43.576Z,100345.78
2022-12-15T09:04:11.819Z,100354.47
2022-12-15T09:06:41.337Z,100359.13
2022-12-15T09:09:11.973Z,100357.00
2022-12-15T09:11:39.806Z,100362.13
2022-12-15T09:14:08.223Z,100353.59
2022-12-15T09:16:36.307Z,100356.00
2022-12-15T09:19:05.329Z,100352.56
2022-12-15T09:21:33.277Z,100351.25
2022-12-15T09:24:03.662Z,100361.97
2022-12-15T09:26:33.744Z,100368.56
2022-12-15T09:29:02.338Z,100365.75
2022-12-15T09:31:32.719Z,100355.63
2022-12-15T09:34:01.795Z,100353.44
2022-12-15T09:36:30.830Z,100356.25
2022-12-15T09:39:01.775Z,100345.06
2022-12-15T09:41:32.251Z,100343.16
2022-12-15T09:44:03.013Z,100337.69
2022-12-15T09:46:54.008Z,100348.31
2022-12-15T09:49:31.980Z,100352.63
2022-12-15T09:52:08.876Z,100370.50
2022-12-15T09:54:41.736Z,100366.06
2022-12-15T09:57:15.856Z,100368.19
2022-12-15T10:00:01.470Z,100369.00
2022-12-15T10:03:18.521Z,100370.72
2022-12-15T10:06:20.095Z,100367.41
2022-12-15T10:08:51.857Z,100373.03
2022-12-15T10:11:28.087Z,100372.66
2022-12-15T10:13:59.809Z,100368.09
2022-12-15T10:16:33.912Z,100375.94
2022-12-15T10:19:08.043Z,100377.19
2022-12-15T10:21:36.428Z,100377.25
2022-12-15T10:24:31.642Z,100375.72
2022-12-15T10:27:16.424Z,100375.94
2022-12-15T10:29:50.917Z,100376.34
2022-12-15T10:32:20.991Z,100370.22
2022-12-15T10:34:49.009Z,100368.09
2022-12-15T10:37:19.455Z,100367.13
2022-12-15T10:39:50.320Z,100360.34
2022-12-15T10:42:23.318Z,100363.03
2022-12-15T10:44:54.188Z,100364.59
2022-12-15T10:47:25.889Z,100378.09
2022-12-15T10:49:54.997Z,100381.38
2022-12-15T10:52:27.270Z,100384.09
2022-12-15T10:54:55.831Z,100384.41
2022-12-15T10:57:28.006Z,100387.19
2022-12-15T11:00:03.968Z,100386.84
2022-12-15T11:02:36.386Z,100382.69
2022-12-15T11:05:06.925Z,100383.47
2022-12-15T11:07:40.175Z,100391.25
2022-12-15T11:10:22.115Z,100387.78
2022-12-15T11:12:59.870Z,100401.16
2022-12-15T11:15:42.353Z,100400.53
2022-12-15T11:18:17.405Z,100394.59
2022-12-15T11:20:49.190Z,100405.56
2022-12-15T11:23:22.186Z,100400.88
2022-12-15T11:25:54.776Z,100393.13
2022-12-15T11:28:25.551Z,100397.47
2022-12-15T11:30:58.448Z,100391.28
2022-12-15T11:33:26.377Z,100391.47
2022-12-15T11:36:07.646Z,100394.00
2022-12-15T11:38:42.193Z,100392.91
2022-12-15T11:41:14.919Z,100399.81
2022-12-15T11:44:04.332Z,100393.63
2022-12-15T11:46:40.414Z,100394.19
2022-12-15T11:49:30.068Z,100399.84
2022-12-15T11:52:02.271Z,100394.28
2022-12-15T11:54:31.331Z,100393.44
2022-12-15T11:57:04.277Z,100390.75
2022-12-15T12:00:02.509Z,100380.38
2022-12-15T12:03:00.715Z,100383.00
2022-12-15T12:05:38.997Z,100378.94
2022-12-15T12:08:17.855Z,100367.28
2022-12-15T12:10:53.382Z,100360.63
2022-12-15T12:13:26.959Z,100357.72
2022-12-15T12:15:59.147Z,100354.44
2022-12-15T12:18:33.725Z,100361.53
2022-12-15T12:21:06.388Z,100363.28
2022-12-15T12:23:39.587Z,100364.91
2022-12-15T12:26:14.478Z,100364.97
2022-12-15T12:28:48.682Z,100374.19
2022-12-15T12:31:24.056Z,100373.75
2022-12-15T12:33:56.750Z,100386.53
2022-12-15T12:36:24.569Z,100386.38
2022-12-15T12:38:56.193Z,100391.97
2022-12-15T12:41:33.412Z,100382.31
2022-12-15T12:44:04.359Z,100379.31
2022-12-15T12:46:34.732Z,100379.88
2022-12-15T12:49:07.098Z,100385.50
2022-12-15T12:51:36.212Z,100384.25
2022-12-15T12:54:04.542Z,100386.44
2022-12-15T12:56:36.227Z,100394.75
2022-12-15T12:59:08.710Z,100399.41
2022-12-15T13:01:38.143Z,100397.94
2022-12-15T13:04:09.589Z,100394.38
2022-12-15T13:07:01.173Z,100391.41
2022-12-15T13:09:41.003Z,100394.56
2022-12-15T13:15:38.445Z,100385.41
2022-12-15T13:18:12.232Z,100391.75
2022-12-15T13:20:42.071Z,100388.06
2022-12-15T13:23:50.417Z,100382.53
2022-12-15T13:26:20.883Z,100386.50
2022-12-15T13:28:53.031Z,100382.66
2022-12-15T13:31:40.001Z,100361.53
2022-12-15T13:34:29.144Z,100361.03
2022-12-15T13:37:02.462Z,100370.00
2022-12-15T13:39:56.225Z,100374.22
2022-12-15T13:42:34.945Z,100367.13
2022-12-15T13:45:21.910Z,100375.69
2022-12-15T13:47:53.331Z,100380.94
2022-12-15T13:50:33.173Z,100385.59
2022-12-15T13:53:20.384Z,100385.44
2022-12-15T13:55:55.306Z,100379.44
2022-12-15T13:58:24.479Z,100385.31
2022-12-15T14:00:54.093Z,100382.34
2022-12-15T14:03:22.550Z,100376.69
2022-12-15T14:05:52.174Z,100375.13
2022-12-15T14:08:23.067Z,100379.41
2022-12-15T14:10:52.930Z,100380.88
2022-12-15T14:13:23.363Z,100378.72
2022-12-15T14:15:55.086Z,100376.47
2022-12-15T14:18:29.092Z,100375.75
2022-12-15T14:20:57.473Z,100381.25
2022-12-15T14:23:30.243Z,100380.66
2022-12-15T14:26:04.747Z,100393.34
2022-12-15T14:28:34.520Z,100395.16
2022-12-15T14:31:05.048Z,100408.72
2022-12-15T14:33:36.077Z,100413.25
2022-12-15T14:36:08.039Z,100407.94
2022-12-15T14:38:43.453Z,100405.16
2022-12-15T14:41:19.040Z,100415.75
2022-12-15T14:43:47.161Z,100428.78
2022-12-15T14:46:35.124Z,100428.94
2022-12-15T14:49:04.933Z,100419.59
2022-12-15T14:51:40.038Z,100418.75
2022-12-15T14:54:28.550Z,100421.38
2022-12-15T14:57:00.345Z,100413.69
2022-12-15T14:59:33.630Z,100417.09
2022-12-15T15:02:11.008Z,100425.66
2022-12-15T15:03:07.366Z,100385.97
2022-12-15T15:04:39.424Z,100425.63
2022-12-15T15:07:08.612Z,100423.06
2022-12-15T15:09:42.160Z,100414.44
2022-12-15T15:12:15.131Z,100419.66
2022-12-15T15:14:44.864Z,100421.34
2022-12-15T15:17:22.992Z,100418.78
2022-12-15T15:19:53.250Z,100417.94
2022-12-15T15:22:36.437Z,100428.09
2022-12-15T15:25:26.523Z,100427.22
2022-12-15T15:28:03.080Z,100426.31
2022-12-15T15:30:31.793Z,100421.13
2022-12-15T15:33:02.252Z,100420.28
2022-12-15T15:35:32.886Z,100407.44
2022-12-15T15:38:04.813Z,100410.09
2022-12-15T15:40:34.153Z,100411.72
2022-12-15T15:43:01.963Z,100410.78
2022-12-15T15:45:31.001Z,100415.06
2022-12-15T15:47:58.827Z,100411.63
2022-12-15T15:50:29.609Z,100410.72
2022-12-15T15:52:58.122Z,100414.03
2022-12-15T15:55:27.934Z,100414.13
2022-12-15T15:57:57.158Z,100425.22
2022-12-15T16:00:26.233Z,100414.06
2022-12-15T16:02:54.586Z,100415.81
2022-12-15T16:05:22.840Z,100414.00
2022-12-15T16:07:51.329Z,100420.78
2022-12-15T16:10:20.788Z,100425.13
2022-12-15T16:12:49.846Z,100423.41
2022-12-15T16:15:21.156Z,100438.63
2022-12-15T16:17:49.299Z,100441.22
2022-12-15T16:20:18.932Z,100448.19
2022-12-15T16:22:49.093Z,100444.78
2022-12-15T16:25:21.659Z,100438.69
2022-12-15T16:27:49.761Z,100440.44
2022-12-15T16:30:22.752Z,100445.59
2022-12-15T16:32:50.740Z,100440.19
2022-12-15T16:35:19.281Z,100443.75
2022-12-15T16:37:48.087Z,100442.72
2022-12-15T16:40:18.028Z,100450.38
2022-12-15T16:42:50.444Z,100452.09
2022-12-15T16:45:21.283Z,100452.84
2022-12-15T16:47:49.309Z,100453.72
2022-12-15T16:50:23.892Z,100462.16
2022-12-15T16:52:54.056Z,100462.22
2022-12-15T16:55:24.910Z,100461.41
2022-12-15T16:57:53.984Z,100457.97
2022-12-15T17:00:26.456Z,100463.88
2022-12-15T17:02:54.817Z,100464.72
2022-12-15T17:05:23.100Z,100466.41
2022-12-15T17:07:52.931Z,100465.50
2022-12-15T17:10:24.145Z,100459.47
2022-12-15T17:12:53.287Z,100474.72
2022-12-15T17:15:24.761Z,100479.78
2022-12-15T17:17:52.943Z,100483.22
2022-12-15T17:20:29.427Z,100483.97
2022-12-15T17:23:01.656Z,100492.41
2022-12-15T17:26:01.622Z,100496.56
2022-12-15T17:28:25.223Z,100507.59
2022-12-15T17:30:54.561Z,100502.44
2022-12-15T17:33:23.946Z,100510.16
2022-12-15T17:35:53.256Z,100508.56
2022-12-15T17:38:22.253Z,100511.25
2022-12-15T17:40:51.284Z,100513.78
2022-12-15T17:43:20.749Z,100515.53
2022-12-15T17:45:50.631Z,100524.81
2022-12-15T17:48:19.832Z,100528.44
2022-12-15T17:50:49.965Z,100521.81
2022-12-15T17:53:18.459Z,100521.75
2022-12-15T17:55:46.406Z,100518.09
2022-12-15T17:58:18.712Z,100522.31
2022-12-15T18:00:49.336Z,100516.97
2022-12-15T18:03:19.082Z,100514.19
2022-12-15T18:05:48.371Z,100498.88
2022-12-15T18:08:18.358Z,100497.94
2022-12-15T18:10:47.077Z,100507.19
2022-12-15T18:13:19.456Z,100503.69
2022-12-15T18:15:47.900Z,100504.31
2022-12-15T18:18:17.713Z,100506.81
2022-12-15T18:20:46.972Z,100517.94
2022-12-15T18:23:15.889Z,100519.66
2022-12-15T18:25:44.512Z,100513.50
2022-12-15T18:28:19.895Z,100510.28
2022-12-15T18:30:48.523Z,100516.16
2022-12-15T18:33:16.414Z,100517.81
2022-12-15T18:35:47.792Z,100522.88
2022-12-15T18:38:17.304Z,100529.56
2022-12-15T18:40:46.652Z,100534.59
2022-12-15T18:43:16.491Z,100544.81
2022-12-15T18:45:45.291Z,100544.66
2022-12-15T18:48:20.859Z,100535.25
2022-12-15T18:50:52.588Z,100531.84
2022-12-15T18:53:23.999Z,100527.59
2022-12-15T18:55:51.857Z,100518.28
2022-12-15T18:58:24.554Z,100511.47
2022-12-15T19:00:53.282Z,100518.31
2022-12-15T19:03:21.992Z,100523.16
2022-12-15T19:05:55.337Z,100522.34
2022-12-15T19:08:25.533Z,100527.56
2022-12-15T19:10:55.937Z,100529.94
2022-12-15T19:13:26.277Z,100532.63
2022-12-15T19:15:54.366Z,100529.19
2022-12-15T19:18:41.016Z,100527.38
2022-12-15T19:21:33.711Z,100534.13
2022-12-15T19:24:01.691Z,100543.66
2022-12-15T19:26:29.608Z,100553.63
2022-12-15T19:28:57.612Z,100550.84
2022-12-15T19:31:25.558Z,100550.56
2022-12-15T19:33:53.510Z,100549.56
2022-12-15T19:36:24.112Z,100544.41
2022-12-15T19:38:54.101Z,100545.94
2022-12-15T19:41:22.312Z,100545.66
2022-12-15T19:43:50.200Z,100548.97
2022-12-15T19:46:20.018Z,100550.44
2022-12-15T19:48:48.815Z,100547.19
2022-12-15T19:51:17.968Z,100553.09
2022-12-15T19:53:48.245Z,100553.78
2022-12-15T19:56:18.785Z,100550.53
2022-12-15T19:58:47.401Z,100546.97
2022-12-15T20:01:17.083Z,100550.19
2022-12-15T20:03:46.342Z,100545.06
2022-12-15T20:06:16.810Z,100545.06
2022-12-15T20:08:46.242Z,100542.34
2022-12-15T20:11:21.248Z,100539.88
2022-12-15T20:13:50.676Z,100548.13
2022-12-15T20:16:19.262Z,100541.16
2022-12-15T20:18:47.339Z,100545.22
2022-12-15T20:21:20.606Z,100547.03
2022-12-15T20:23:52.342Z,100546.13
2022-12-15T20:26:22.215Z,100539.50
2022-12-15T20:28:50.445Z,100538.13
2022-12-15T20:31:20.757Z,100538.84
2022-12-15T20:33:49.503Z,100538.69
2022-12-15T20:36:20.275Z,100546.25
2022-12-15T20:38:49.313Z,100548.00
2022-12-15T20:41:18.652Z,100552.09
2022-12-15T20:43:48.302Z,100554.69
2022-12-15T20:46:18.896Z,100553.13
2022-12-15T20:48:47.097Z,100545.41
2022-12-15T20:51:21.999Z,100553.31
2022-12-15T20:53:50.589Z,100552.47
2022-12-15T20:56:20.724Z,100550.69
2022-12-15T20:58:50.417Z,100563.28
2022-12-15T21:01:20.785Z,100560.00
2022-12-15T21:03:50.380Z,100567.78
2022-12-15T21:06:20.084Z,100555.28
2022-12-15T21:08:48.021Z,100557.78
2022-12-15T21:11:18.407Z,100558.63
2022-12-15T21:13:47.173Z,100554.31
2022-12-15T21:16:19.545Z,100563.69
2022-12-15T21:21:38.625Z,100555.09
2022-12-15T21:24:14.675Z,100556.81
2022-12-15T21:26:42.536Z,100560.59
2022-12-15T21:29:13.829Z,100559.03
2022-12-15T21:31:43.498Z,100554.84
2022-12-15T21:34:11.432Z,100555.66
2022-12-15T21:36:40.837Z,100553.00
2022-12-15T21:39:11.526Z,100546.13
2022-12-15T21:41:41.496Z,100554.59
2022-12-15T21:44:13.445Z,100549.47
2022-12-15T21:46:43.340Z,100555.25
2022-12-15T21:49:18.313Z,100555.16
2022-12-15T21:51:48.006Z,100554.28
2022-12-15T21:54:18.527Z,100547.28
2022-12-15T21:56:47.378Z,100552.13
2022-12-15T21:59:16.520Z,100551.97
2022-12-15T22:01:46.140Z,100557.13
2022-12-15T22:04:19.458Z,100547.97
2022-12-15T22:06:50.498Z,100552.22
2022-12-15T22:09:21.100Z,100552.31
2022-12-15T22:11:51.338Z,100555.72
2022-12-15T22:14:25.174Z,100560.00
2022-12-15T22:16:54.490Z,100554.75
2022-12-15T22:19:22.706Z,100550.47
2022-12-15T22:21:50.758Z,100551.56
2022-12-15T22:24:20.115Z,100550.63
2022-12-15T22:26:49.407Z,100553.03
2022-12-15T22:29:18.999Z,100553.78
2022-12-15T22:31:50.621Z,100544.34
2022-12-15T22:34:26.720Z,100547.56
2022-12-15T22:36:54.885Z,100538.09
2022-12-15T22:39:23.034Z,100539.84
2022-12-15T22:41:51.625Z,100536.34
2022-12-15T22:44:22.837Z,100543.09
2022-12-15T22:46:51.311Z,100537.94
2022-12-15T22:49:20.865Z,100538.78
2022-12-15T22:51:50.284Z,100539.59
2022-12-15T22:54:19.869Z,100534.50
2022-12-15T22:56:48.764Z,100534.44
2022-12-15T22:59:21.936Z,100542.13
2022-12-15T23:01:49.957Z,100540.38
2022-12-15T23:04:17.905Z,100540.31
2022-12-15T23:06:46.228Z,100543.56
2022-12-15T23:09:15.395Z,100552.81
2022-12-15T23:11:42.235Z,100546.88
2022-12-15T23:14:11.523Z,100538.41
2022-12-15T23:16:38.680Z,100539.25
2022-12-15T23:19:07.891Z,100541.81
2022-12-15T23:21:36.947Z,100537.50
2022-12-15T23:24:05.035Z,100535.69
2022-12-15T23:26:34.250Z,100546.81
2022-12-15T23:29:02.115Z,100542.41
2022-12-15T23:31:30.259Z,100545.78
2022-12-15T23:33:58.216Z,100551.69
2022-12-15T23:36:26.131Z,100551.69
2022-12-15T23:38:55.008Z,100551.69
2022-12-15T23:41:22.924Z,100552.19
2022-12-15T23:43:52.178Z,100554.13
2022-12-15T23:46:20.120Z,100562.44
2022-12-15T23:48:48.159Z,100570.00
2022-12-15T23:51:17.981Z,100570.72
2022-12-15T23:53:47.469Z,100573.03
2022-12-15T23:56:17.039Z,100580.63
2022-12-15T23:58:45.965Z,100578.81
